My Meet Scores
Teagan Thacker, Naperville Gymnastics Club - MyMeetScores.com
Top100 | Top Teams | Upcoming Meets | Completed Meets | Latest | Add Scores | Help| Support | Bookmark and Share

Teagan Thacker, Naperville Gymnastics Club
Personal Bests
LevelVault BarsBeamFloorAA
39.5759.450 9.3509.42537.775
48.3009.000 8.8009.00033.850
68.3258.750 9.1508.90034.525
XB9.1759.775 9.7009.25037.900
XP9.0009.025 9.0008.75035.775
Meet Scores
Date Meet Team Session Level Division Vault Bars Beam Floor AA
2022-04-08 Illinois Xcel State Championships 2022 Naperville Gymnastics Club 01B XP Jr B 9.000 24T 9.025 11 9.000 11T 8.750 28 35.775 14
2022-03-04 2022 Flip'r S.O.U.L. Invitational Naperville Gymnastics Club 9 6 jr 8.000 15T 8.550 10 8.850 12 8.800 17 34.200 11T
2022-02-24 Region 5 - R5 Insider Classic Naperville Gymnastics Club R09 6 Sr A 8.150 11 8.200 7 9.075 4 8.825 13 34.250 10
2022-02-04 Buckeye Classic Naperville Gymnastics Club FG2 6 C 8.075 15 8.300 9T 9.150 8T 8.800 14 34.325 12T
2022-01-14 2022 Bravo Classic Naperville Gymnastics Club 02A 6 Sr 8.325 11 8.500 5 8.850 10 8.850 10 34.525 9
2021-12-03 Flipstar's Home for the Holidays Naperville Gymnastics Club 1 6 Sr A 7.400 12 8.750 8 8.300 11 8.900 11 33.350 11
2021-03-05 NGC Flip'r S.O.U.L. Invitational Naperville Gymnastics Club 01 4 JR B 8.300 10 7.950 14 8.200 11 8.525 10 32.975 13
2021-02-19 BIG Classic 2021 Naperville Gymnastics Club VIR 4 *** 8.000 75T 8.400 53T 8.450 67T 9.000 30T 33.850 55
2021-01-09 2021 Bravo Classic Virtual Meet Naperville Gymnastics Club 102 4 Sr 7.750 8 9.000 6T 8.800 8T 8.300 9 33.850 8
2020-03-06 2020 Flip'r Invitational Naperville Gymnastics Club 1 3 SR B 9.575 3T 9.425 1 9.350 1 9.425 2 37.775 1
2020-02-21 Kinetic Classic Naperville Gymnastics Club 05 3 Older 9.100 49T 9.000 53T 9.075 35T 9.275 33T 36.450 38
2020-02-07 SCGA Classic Naperville Gymnastics Club 1 3 Jr C 8.775 8 9.225 1 8.750 1 8.575 4 35.325 2
2020-01-31 Big Chill Naperville Gymnastics Club 6 3 10+ 9.025 10T 9.150 4T 9.250 6 8.950 8 36.375 8
2020-01-17 2020 Bravo Classic Naperville Gymnastics Club 7B 3 Sr 9.000 16T 9.350 3 9.175 4T 9.275 5T 36.800 6
2020-01-10 Leenda's Island Adventure Naperville Gymnastics Club GG3 3 10 & Over 9.250 2 8.975 4 8.950 5 8.600 6 35.775 4
2019-12-07 Home for the Holidays 2019 Naperville Gymnastics Club 2 3 Sr C 9.000 11T 9.450 1 8.950 1 8.950 9T 36.350 3
2019-04-13 2019 Illinois XB, XS State Championships Naperville Gymnastics Club 7 XB Ch D 9.175 7 9.775 2 9.700 1 9.250 11 37.900 4
2019-03-01 NGCD Academy's 2019 Flip'r Invitational Naperville Gymnastics Club 3 3 All 8.700 4 9.025 1 8.775 3 8.350 3 34.850 1
2019-02-23 Kinetic Classic 2019 Naperville Gymnastics Club 1 3 Middle 8.575 37T 8.250 44 8.500 42T 7.700 46T 33.025 47
2019-02-01 The Big Chill Naperville Gymnastics Club 4 XB 9 & 10 yr 8.800 4 9.650 1 9.450 3 9.175 2 37.075 3
2018-12-14 2018 Aspire Classic Naperville Gymnastics Club 3 XB Older 8.250 8 9.400 4 9.200 1 8.150 9 35.000 5
Get your scores on
a t-shirt, pin, or hoodie